Time;durP1;ratioP1;P1;durP2;ratioP2;P2;SDS_P1;SDS_P2;PMS_P1;PMS_P2;Temp;Humidity;BMP_temperature;BMP_pressure;BME280_temperature;BME280_humidity;BME280_pressure;Samples;Min_cycle;Max_cycle;Signal;HPM_P1;HPM_P2
2023/05/08 00:00:08;;;;;;;8.35;7.13;;;17.40;99.90;;;;;;7374588;19;20210;-73
2023/05/08 00:02:33;;;;;;;9.32;6.47;;;17.40;99.90;;;;;;7372380;19;20145;-73
2023/05/08 00:04:59;;;;;;;7.13;6.13;;;17.30;99.90;;;;;;7383242;19;20552;-73
2023/05/08 00:07:25;;;;;;;7.05;5.70;;;17.30;99.90;;;;;;7387774;19;20155;-73
2023/05/08 00:09:50;;;;;;;7.22;6.35;;;17.20;99.90;;;;;;7383561;19;21842;-74
2023/05/08 00:12:16;;;;;;;6.72;5.55;;;17.20;99.90;;;;;;7371263;19;20138;-74
2023/05/08 00:14:42;;;;;;;7.10;5.35;;;17.20;99.90;;;;;;7371044;19;20155;-73
2023/05/08 00:17:07;;;;;;;6.75;5.50;;;17.20;99.90;;;;;;7371594;19;20134;-74
2023/05/08 00:19:33;;;;;;;7.18;5.93;;;17.20;99.90;;;;;;7375087;19;20625;-73
2023/05/08 00:21:59;;;;;;;7.60;6.00;;;17.20;99.90;;;;;;7386446;19;20146;-74
2023/05/08 00:24:25;;;;;;;6.97;5.30;;;17.20;99.90;;;;;;7380277;19;20146;-74
2023/05/08 00:26:50;;;;;;;8.38;6.15;;;17.10;99.90;;;;;;7391235;19;20139;-73
2023/05/08 00:29:16;;;;;;;7.65;5.80;;;17.20;99.90;;;;;;7393148;19;20130;-74
2023/05/08 00:31:42;;;;;;;6.18;5.53;;;17.10;99.90;;;;;;7390357;19;20138;-74
2023/05/08 00:34:08;;;;;;;7.95;5.18;;;17.10;99.90;;;;;;7389554;19;20127;-73
2023/05/08 00:36:34;;;;;;;7.85;5.93;;;17.10;99.90;;;;;;7387901;19;20140;-75
2023/05/08 00:38:59;;;;;;;5.25;4.75;;;17.10;99.90;;;;;;7377558;19;21901;-72
2023/05/08 00:41:25;;;;;;;6.55;5.32;;;17.10;99.90;;;;;;7382043;19;20149;-73
2023/05/08 00:43:51;;;;;;;5.97;5.10;;;17.10;99.90;;;;;;7385742;19;20130;-73
2023/05/08 00:46:17;;;;;;;6.40;4.78;;;17.10;99.90;;;;;;7389905;19;20134;-73
2023/05/08 00:48:44;;;;;;;7.22;4.97;;;17.00;99.90;;;;;;7378242;19;20131;-73
2023/05/08 00:51:10;;;;;;;4.72;4.32;;;17.10;99.90;;;;;;7391665;19;20174;-73
2023/05/08 00:53:43;;;;;;;5.88;4.82;;;17.10;99.90;;;;;;7387566;19;20582;-73
2023/05/08 00:56:11;;;;;;;6.25;4.45;;;17.10;99.90;;;;;;7373181;19;20143;-73
2023/05/08 00:58:38;;;;;;;5.95;5.10;;;17.10;99.90;;;;;;7388534;19;20135;-73
2023/05/08 01:01:04;;;;;;;5.03;4.43;;;17.10;99.90;;;;;;7373417;19;20138;-74
2023/05/08 01:03:31;;;;;;;6.05;4.88;;;17.10;99.90;;;;;;7367378;19;20543;-74
2023/05/08 01:05:57;;;;;;;5.97;4.65;;;17.10;99.90;;;;;;7370127;19;21764;-73
2023/05/08 01:08:22;;;;;;;5.28;4.32;;;17.00;99.90;;;;;;7368077;19;20146;-73
2023/05/08 01:11:05;;;;;;;5.68;4.93;;;17.00;99.90;;;;;;7385254;19;20168;-74
2023/05/08 01:13:50;;;;;;;5.28;4.55;;;17.00;99.90;;;;;;7386498;19;20131;-73
2023/05/08 01:16:29;;;;;;;5.20;4.55;;;17.10;99.90;;;;;;7374889;19;20181;-74
2023/05/08 01:19:16;;;;;;;6.38;4.40;;;17.10;99.90;;;;;;7378653;19;20153;-74
2023/05/08 01:21:53;;;;;;;6.47;4.78;;;17.10;99.90;;;;;;7370944;19;20153;-74
2023/05/08 01:24:46;;;;;;;5.82;5.20;;;17.00;99.90;;;;;;7381725;19;20183;-72
2023/05/08 01:27:35;;;;;;;5.72;4.63;;;17.00;99.90;;;;;;7379226;19;20134;-74
2023/05/08 01:30:38;;;;;;;6.45;4.82;;;17.00;99.90;;;;;;7388200;19;20491;-73
2023/05/08 01:33:16;;;;;;;6.43;4.50;;;16.90;99.90;;;;;;7387170;19;20138;-73
2023/05/08 01:35:46;;;;;;;6.63;4.43;;;16.90;99.90;;;;;;7381081;19;20475;-74
2023/05/08 01:38:47;;;;;;;4.88;4.38;;;17.00;99.90;;;;;;7369556;19;20162;-74
2023/05/08 01:41:16;;;;;;;5.80;4.18;;;17.00;99.90;;;;;;7386371;19;20219;-73
2023/05/08 01:43:49;;;;;;;5.90;4.45;;;17.00;99.90;;;;;;7381729;19;20714;-73
2023/05/08 01:46:26;;;;;;;4.55;4.10;;;17.10;99.90;;;;;;7372521;19;20146;-74
2023/05/08 01:49:21;;;;;;;6.18;4.57;;;17.10;99.90;;;;;;7370014;19;20591;-73
2023/05/08 01:52:12;;;;;;;6.55;4.47;;;17.10;99.90;;;;;;7377989;19;20209;-73
2023/05/08 01:55:13;;;;;;;5.07;4.22;;;17.10;99.90;;;;;;7372804;19;20465;-74
2023/05/08 01:57:42;;;;;;;5.28;4.18;;;16.90;99.90;;;;;;7369433;19;21694;-73
2023/05/08 02:00:09;;;;;;;5.10;4.60;;;17.00;99.90;;;;;;7386190;19;20150;-73
2023/05/08 02:02:35;;;;;;;6.38;4.05;;;17.00;99.90;;;;;;7386089;19;20142;-73
2023/05/08 02:05:06;;;;;;;4.28;3.78;;;16.90;99.90;;;;;;7371136;19;20131;-73
2023/05/08 02:07:36;;;;;;;4.20;3.80;;;16.90;99.90;;;;;;7381465;19;20160;-72
2023/05/08 02:10:04;;;;;;;4.78;4.18;;;16.90;99.90;;;;;;7381257;19;20501;-73
2023/05/08 02:12:31;;;;;;;5.00;4.50;;;17.00;99.90;;;;;;7371833;19;20143;-73
2023/05/08 02:14:59;;;;;;;5.53;4.90;;;17.00;99.90;;;;;;7386628;19;20143;-74
2023/05/08 02:17:26;;;;;;;5.65;4.38;;;17.00;99.90;;;;;;7389545;19;20218;-73
2023/05/08 02:19:55;;;;;;;5.55;5.03;;;17.00;99.90;;;;;;7383406;19;20590;-73
2023/05/08 02:22:23;;;;;;;5.40;4.75;;;16.80;99.90;;;;;;7378512;19;20172;-73
2023/05/08 02:24:54;;;;;;;5.00;4.50;;;16.90;99.90;;;;;;7385554;19;20150;-73
2023/05/08 02:27:26;;;;;;;5.65;4.65;;;16.90;99.90;;;;;;7375523;19;20148;-73
2023/05/08 02:29:53;;;;;;;5.32;4.40;;;16.90;99.90;;;;;;7383975;19;20156;-73
2023/05/08 02:32:20;;;;;;;7.03;4.97;;;16.90;99.90;;;;;;7383195;19;20648;-73
2023/05/08 02:34:49;;;;;;;6.10;5.22;;;17.00;99.90;;;;;;7387234;19;20484;-74
2023/05/08 02:37:18;;;;;;;5.75;4.78;;;17.10;99.90;;;;;;7380619;19;20169;-73
2023/05/08 02:39:45;;;;;;;6.43;4.32;;;17.10;99.90;;;;;;7384227;19;20473;-73
2023/05/08 02:42:11;;;;;;;6.97;5.07;;;17.10;99.90;;;;;;7366401;19;20157;-73
2023/05/08 02:44:37;;;;;;;6.63;5.28;;;17.10;99.90;;;;;;7380176;19;20135;-73
2023/05/08 02:47:24;;;;;;;5.68;5.07;;;17.10;99.90;;;;;;7385543;19;20254;-74
2023/05/08 02:50:04;;;;;;;5.82;5.22;;;17.10;99.90;;;;;;7387454;19;20443;-73
2023/05/08 02:53:03;;;;;;;5.28;4.78;;;17.00;99.90;;;;;;7388241;19;20139;-74
2023/05/08 02:55:42;;;;;;;7.50;4.70;;;17.10;99.90;;;;;;7376816;19;20167;-73
2023/05/08 02:58:34;;;;;;;5.70;5.03;;;17.00;99.90;;;;;;7378494;19;20238;-73
2023/05/08 03:01:05;;;;;;;6.85;5.45;;;17.10;99.90;;;;;;7387109;19;20603;-74
2023/05/08 03:03:42;;;;;;;6.30;4.82;;;17.00;99.90;;;;;;7382198;19;20127;-73
2023/05/08 03:06:12;;;;;;;5.22;4.72;;;17.10;99.90;;;;;;7381652;19;20152;-73
2023/05/08 03:08:39;;;;;;;6.65;4.97;;;17.10;99.90;;;;;;7374882;19;20143;-74
2023/05/08 03:11:11;;;;;;;6.00;5.40;;;17.10;99.90;;;;;;7369283;19;20167;-74
2023/05/08 03:13:40;;;;;;;6.80;5.53;;;17.00;99.90;;;;;;7387923;19;20686;-73
2023/05/08 03:16:10;;;;;;;7.10;6.00;;;17.00;99.90;;;;;;7384968;19;20135;-73
2023/05/08 03:18:46;;;;;;;7.35;5.32;;;17.00;99.90;;;;;;7382153;19;20181;-74
2023/05/08 03:21:16;;;;;;;5.85;5.25;;;17.00;99.90;;;;;;7372260;19;20641;-73
2023/05/08 03:23:43;;;;;;;8.02;5.65;;;16.90;99.90;;;;;;7376949;19;20526;-74
2023/05/08 03:26:09;;;;;;;8.52;5.82;;;17.00;99.90;;;;;;7380752;19;20161;-73
2023/05/08 03:28:35;;;;;;;7.35;6.20;;;16.90;99.90;;;;;;7390982;19;20603;-73
2023/05/08 03:31:03;;;;;;;7.65;5.93;;;17.10;99.90;;;;;;7392581;19;20191;-73
2023/05/08 03:33:31;;;;;;;6.90;5.93;;;16.90;99.90;;;;;;7388366;19;20214;-74
2023/05/08 03:35:58;;;;;;;6.97;6.20;;;17.00;99.90;;;;;;7371559;19;20194;-73
2023/05/08 03:38:24;;;;;;;6.78;5.97;;;16.80;99.90;;;;;;7383835;19;20255;-73
2023/05/08 03:40:50;;;;;;;6.82;5.78;;;16.80;99.90;;;;;;7389479;19;20150;-72
2023/05/08 03:43:17;;;;;;;7.45;6.03;;;16.80;99.90;;;;;;7387969;19;20156;-73
2023/05/08 03:45:43;;;;;;;6.57;5.88;;;16.70;99.90;;;;;;7375759;19;20146;-73
2023/05/08 03:48:10;;;;;;;7.20;6.38;;;16.80;99.90;;;;;;7392984;19;20130;-74
2023/05/08 03:50:37;;;;;;;7.68;6.53;;;16.80;99.90;;;;;;7390556;19;20141;-74
2023/05/08 03:53:04;;;;;;;7.47;6.72;;;16.80;99.90;;;;;;7380052;19;20150;-73
2023/05/08 03:55:30;;;;;;;7.07;6.30;;;16.80;99.90;;;;;;7382001;19;22202;-74
2023/05/08 03:58:25;;;;;;;7.18;6.45;;;16.80;99.90;;;;;;7378782;19;20141;-73
2023/05/08 04:01:32;;;;;;;6.82;6.13;;;16.70;99.90;;;;;;7379555;19;20127;-73
2023/05/08 04:04:16;;;;;;;7.63;6.82;;;16.80;99.90;;;;;;7382046;19;20143;-74
2023/05/08 04:06:50;;;;;;;7.15;6.38;;;16.80;99.90;;;;;;7385950;19;20130;-74
2023/05/08 04:09:23;;;;;;;9.90;6.85;;;16.70;99.90;;;;;;7382825;19;20206;-73
2023/05/08 04:11:52;;;;;;;8.23;6.90;;;16.60;99.90;;;;;;7374853;19;20123;-72
2023/05/08 04:14:21;;;;;;;7.93;6.60;;;16.70;99.90;;;;;;7370932;19;20131;-73
2023/05/08 04:16:55;;;;;;;12.88;7.40;;;16.70;99.90;;;;;;7380471;19;20131;-73
2023/05/08 04:19:28;;;;;;;9.60;7.40;;;16.70;99.90;;;;;;7388017;19;20154;-73
2023/05/08 04:21:58;;;;;;;7.50;6.70;;;16.70;99.90;;;;;;7383434;19;20166;-73
2023/05/08 04:24:27;;;;;;;9.68;7.13;;;16.70;99.90;;;;;;7368665;19;20218;-73
2023/05/08 04:26:53;;;;;;;8.32;7.53;;;16.80;99.90;;;;;;7383240;19;20586;-73
2023/05/08 04:29:19;;;;;;;7.38;6.53;;;16.80;99.90;;;;;;7373984;19;20126;-73
2023/05/08 04:31:46;;;;;;;7.65;6.70;;;16.70;99.90;;;;;;7371678;19;20142;-73
2023/05/08 04:34:12;;;;;;;8.40;6.63;;;16.70;99.90;;;;;;7382507;19;20495;-74
2023/05/08 04:36:38;;;;;;;8.35;6.55;;;16.70;99.90;;;;;;7384803;19;20507;-73
2023/05/08 04:39:04;;;;;;;6.80;5.93;;;16.80;99.90;;;;;;7371648;19;20130;-73
2023/05/08 04:41:29;;;;;;;6.53;5.90;;;16.80;99.90;;;;;;7367683;19;20146;-73
2023/05/08 04:43:55;;;;;;;6.60;5.97;;;16.90;99.90;;;;;;7371745;19;20131;-74
2023/05/08 04:46:23;;;;;;;7.43;6.60;;;16.80;99.90;;;;;;7390383;19;20521;-74
2023/05/08 04:48:49;;;;;;;7.55;6.75;;;16.90;99.90;;;;;;7377143;19;20157;-74
2023/05/08 04:51:15;;;;;;;8.35;6.93;;;17.00;99.90;;;;;;7384936;19;20152;-73
2023/05/08 04:53:41;;;;;;;7.50;6.70;;;16.80;99.90;;;;;;7387724;19;20186;-73
2023/05/08 04:56:07;;;;;;;9.70;6.47;;;16.70;99.90;;;;;;7370443;19;20139;-72
2023/05/08 04:58:32;;;;;;;6.90;5.93;;;16.80;99.90;;;;;;7384313;19;20135;-73
2023/05/08 05:01:02;;;;;;;8.50;6.25;;;16.90;99.90;;;;;;7387111;19;20189;-75
2023/05/08 05:03:28;;;;;;;7.70;6.65;;;16.90;99.90;;;;;;7372838;19;20144;-73
2023/05/08 05:05:58;;;;;;;6.60;6.00;;;16.80;99.90;;;;;;7368175;19;20130;-74
2023/05/08 05:08:24;;;;;;;6.32;5.68;;;16.80;99.90;;;;;;7382697;19;20126;-74
2023/05/08 05:10:50;;;;;;;7.30;6.60;;;16.90;99.90;;;;;;7391329;19;20164;-74
2023/05/08 05:13:16;;;;;;;6.85;5.95;;;16.90;99.90;;;;;;7383568;19;20146;-73
2023/05/08 05:15:42;;;;;;;6.10;5.50;;;16.90;99.90;;;;;;7370598;19;20686;-72
2023/05/08 05:18:08;;;;;;;7.40;5.75;;;16.80;99.90;;;;;;7368879;19;20221;-74
2023/05/08 05:20:33;;;;;;;8.27;6.00;;;17.00;99.90;;;;;;7370679;19;20134;-73
2023/05/08 05:22:59;;;;;;;7.30;6.60;;;16.90;99.90;;;;;;7365065;19;20134;-73
2023/05/08 05:25:25;;;;;;;6.45;5.85;;;16.90;99.90;;;;;;7381373;19;20143;-74
2023/05/08 05:27:51;;;;;;;7.20;6.28;;;16.90;99.90;;;;;;7373600;19;20143;-74
2023/05/08 05:30:17;;;;;;;8.10;7.00;;;17.00;99.90;;;;;;7387487;19;20210;-74
2023/05/08 05:32:43;;;;;;;7.72;6.60;;;16.90;99.90;;;;;;7385536;19;20244;-73
2023/05/08 05:35:10;;;;;;;7.47;6.00;;;16.80;99.90;;;;;;7389910;19;20157;-72
2023/05/08 05:37:36;;;;;;;8.27;6.55;;;16.70;99.90;;;;;;7385017;19;20126;-74
2023/05/08 05:40:02;;;;;;;7.90;7.13;;;16.90;99.90;;;;;;7384193;19;20226;-73
2023/05/08 05:42:28;;;;;;;7.97;6.45;;;16.90;99.90;;;;;;7386033;19;20471;-73
2023/05/08 05:44:55;;;;;;;9.02;7.53;;;16.80;99.90;;;;;;7383199;19;20134;-72
2023/05/08 05:47:21;;;;;;;8.18;7.38;;;16.90;99.90;;;;;;7366214;19;20144;-73
2023/05/08 05:49:47;;;;;;;8.07;6.75;;;16.80;99.90;;;;;;7369748;19;20131;-73
2023/05/08 05:52:13;;;;;;;6.80;6.10;;;16.90;99.90;;;;;;7383938;19;20493;-73
2023/05/08 05:54:40;;;;;;;8.68;7.78;;;16.80;99.90;;;;;;7385165;19;20139;-73
2023/05/08 05:57:06;;;;;;;7.25;6.53;;;16.90;99.90;;;;;;7377225;19;20450;-74
2023/05/08 05:59:32;;;;;;;7.40;6.70;;;16.90;99.90;;;;;;7384950;19;20153;-74
2023/05/08 06:01:58;;;;;;;10.10;7.78;;;16.80;99.90;;;;;;7362419;19;22085;-74
2023/05/08 06:04:24;;;;;;;8.02;6.97;;;17.00;99.90;;;;;;7372816;19;20147;-72
2023/05/08 06:06:49;;;;;;;7.30;6.60;;;16.80;99.90;;;;;;7368853;19;20172;-73
2023/05/08 06:09:15;;;;;;;8.02;6.53;;;16.80;99.90;;;;;;7368411;19;20131;-73
2023/05/08 06:11:41;;;;;;;7.80;6.68;;;16.90;99.90;;;;;;7385476;19;20141;-74
2023/05/08 06:14:07;;;;;;;7.32;6.63;;;16.90;99.90;;;;;;7375173;19;20135;-73
2023/05/08 06:16:34;;;;;;;10.73;8.13;;;16.80;99.90;;;;;;7386258;19;20152;-73
2023/05/08 06:19:00;;;;;;;7.60;6.50;;;16.70;99.90;;;;;;7385825;19;20190;-73
2023/05/08 06:21:27;;;;;;;8.52;6.63;;;16.80;99.90;;;;;;7385854;19;20501;-72
2023/05/08 06:23:53;;;;;;;6.82;6.13;;;16.80;99.90;;;;;;7373778;19;20993;-73
2023/05/08 06:26:20;;;;;;;7.47;6.15;;;16.80;99.90;;;;;;7367829;19;20732;-72
2023/05/08 06:28:45;;;;;;;8.93;6.00;;;16.90;99.90;;;;;;7377896;19;20134;-73
2023/05/08 06:31:11;;;;;;;8.50;6.78;;;16.90;99.90;;;;;;7388149;19;20169;-74
2023/05/08 06:33:37;;;;;;;7.60;6.82;;;16.80;99.90;;;;;;7388265;19;20134;-73
2023/05/08 06:36:05;;;;;;;7.30;5.65;;;16.80;99.90;;;;;;7371526;19;20225;-74
2023/05/08 06:38:31;;;;;;;7.05;6.38;;;16.90;99.90;;;;;;7387119;19;20182;-73
2023/05/08 06:40:57;;;;;;;7.05;5.93;;;16.90;99.90;;;;;;7384691;19;20123;-73
2023/05/08 06:43:22;;;;;;;6.72;6.03;;;16.90;99.90;;;;;;7383637;19;20500;-72
2023/05/08 06:45:48;;;;;;;7.20;6.50;;;16.90;99.90;;;;;;7383168;19;20150;-73
2023/05/08 06:48:14;;;;;;;7.78;6.45;;;17.00;99.90;;;;;;7385791;19;20133;-73
2023/05/08 06:50:40;;;;;;;7.53;6.72;;;17.00;99.90;;;;;;7373786;19;21744;-73
2023/05/08 06:53:06;;;;;;;6.53;5.82;;;17.10;99.90;;;;;;7365986;19;20150;-74
2023/05/08 06:55:32;;;;;;;7.25;6.43;;;16.90;99.90;;;;;;7364880;19;20123;-73
2023/05/08 06:57:58;;;;;;;8.77;6.95;;;16.90;99.90;;;;;;7371536;19;20141;-73
2023/05/08 07:00:24;;;;;;;7.32;6.60;;;17.00;99.90;;;;;;7387358;19;20154;-73
2023/05/08 07:02:51;;;;;;;9.48;7.10;;;17.00;99.90;;;;;;7387722;19;20287;-74
2023/05/08 07:05:16;;;;;;;7.72;6.93;;;17.00;99.90;;;;;;7386214;19;20156;-72
2023/05/08 07:07:42;;;;;;;8.23;7.07;;;17.00;99.90;;;;;;7386082;19;20127;-73
2023/05/08 07:10:09;;;;;;;10.60;8.50;;;16.90;99.90;;;;;;7392173;19;20138;-74
2023/05/08 07:12:34;;;;;;;12.07;10.13;;;17.00;99.90;;;;;;7393957;19;20194;-73
2023/05/08 07:15:01;;;;;;;10.70;8.57;;;17.00;99.90;;;;;;7389666;19;20160;-73
2023/05/08 07:17:29;;;;;;;10.07;6.68;;;17.00;99.90;;;;;;7388655;19;20138;-73
2023/05/08 07:19:55;;;;;;;8.45;7.25;;;17.00;99.90;;;;;;7391896;19;20587;-73
2023/05/08 07:22:21;;;;;;;9.15;7.50;;;17.10;99.90;;;;;;7382425;19;20127;-74
2023/05/08 07:24:46;;;;;;;7.90;7.05;;;17.10;99.90;;;;;;7370530;19;20134;-74
2023/05/08 07:27:13;;;;;;;8.32;7.15;;;17.00;99.90;;;;;;7374651;19;20142;-74
2023/05/08 07:29:40;;;;;;;8.43;6.82;;;17.00;99.90;;;;;;7377134;19;20133;-74
2023/05/08 07:32:09;;;;;;;6.97;6.10;;;17.00;99.90;;;;;;7388961;19;20151;-74
2023/05/08 07:34:35;;;;;;;7.07;6.38;;;17.00;99.90;;;;;;7379492;19;21701;-75
2023/05/08 07:37:01;;;;;;;7.38;6.68;;;17.10;99.90;;;;;;7392715;19;20439;-74
2023/05/08 07:39:27;;;;;;;7.47;6.65;;;17.10;99.90;;;;;;7375442;19;20146;-73
2023/05/08 07:41:52;;;;;;;7.47;6.78;;;17.10;99.90;;;;;;7374849;19;20130;-75
2023/05/08 07:44:18;;;;;;;8.15;6.68;;;17.20;99.90;;;;;;7389120;19;20147;-75
2023/05/08 07:46:44;;;;;;;7.97;6.28;;;17.10;99.90;;;;;;7389204;19;20138;-74
2023/05/08 07:49:10;;;;;;;8.30;6.88;;;17.20;99.90;;;;;;7389770;19;20141;-74
2023/05/08 07:51:35;;;;;;;9.25;7.00;;;17.20;99.90;;;;;;7390043;19;20134;-75
2023/05/08 07:54:02;;;;;;;9.52;7.68;;;17.30;99.90;;;;;;7387383;19;20691;-74
2023/05/08 07:56:27;;;;;;;9.32;7.13;;;17.30;99.90;;;;;;7381189;19;20246;-73
2023/05/08 07:58:53;;;;;;;8.30;6.43;;;17.30;99.90;;;;;;7388885;19;20146;-74
2023/05/08 08:01:19;;;;;;;8.23;7.40;;;17.30;99.90;;;;;;7372031;19;20566;-74
2023/05/08 08:03:45;;;;;;;11.50;7.28;;;17.30;99.90;;;;;;7377941;19;20183;-73
2023/05/08 08:06:11;;;;;;;7.45;6.75;;;17.30;99.90;;;;;;7374648;19;20202;-74
2023/05/08 08:08:37;;;;;;;8.13;7.05;;;17.30;99.90;;;;;;7380637;19;20142;-74
2023/05/08 08:11:02;;;;;;;6.68;5.93;;;17.30;99.90;;;;;;7387121;19;20486;-74
2023/05/08 08:13:28;;;;;;;7.03;6.25;;;17.40;99.90;;;;;;7388210;19;20143;-72
2023/05/08 08:15:54;;;;;;;6.25;5.65;;;17.40;99.90;;;;;;7380556;19;20185;-73
2023/05/08 08:18:20;;;;;;;7.57;6.57;;;17.50;99.90;;;;;;7370434;19;20309;-73
2023/05/08 08:20:46;;;;;;;6.97;6.28;;;17.40;99.90;;;;;;7380735;19;20141;-73
2023/05/08 08:23:11;;;;;;;6.70;6.00;;;17.50;99.90;;;;;;7388506;19;20206;-76
2023/05/08 08:25:37;;;;;;;6.35;5.75;;;17.50;99.90;;;;;;7391120;19;20142;-76
2023/05/08 08:28:03;;;;;;;6.00;5.22;;;17.30;99.90;;;;;;7392301;19;20210;-75
2023/05/08 08:30:29;;;;;;;5.28;4.70;;;17.30;99.90;;;;;;7389805;19;20194;-75
2023/05/08 08:32:55;;;;;;;9.07;7.35;;;17.40;99.90;;;;;;7388782;19;20158;-75
2023/05/08 08:35:27;;;;;;;5.80;4.63;;;17.50;99.90;;;;;;7389014;19;20130;-75
2023/05/08 08:37:54;;;;;;;7.03;4.95;;;17.60;99.90;;;;;;7372135;19;20164;-75
2023/05/08 08:40:22;;;;;;;6.82;5.65;;;17.60;99.90;;;;;;7386500;19;20138;-75
2023/05/08 08:42:48;;;;;;;6.85;5.00;;;17.60;99.90;;;;;;7390605;19;20227;-74
2023/05/08 08:45:14;;;;;;;8.15;5.95;;;17.60;99.90;;;;;;7385716;19;20626;-75
2023/05/08 08:47:44;;;;;;;5.90;4.68;;;17.70;99.90;;;;;;7377604;19;20138;-74
2023/05/08 08:50:12;;;;;;;5.18;4.20;;;17.80;99.90;;;;;;7378232;19;20486;-74
2023/05/08 08:52:46;;;;;;;5.72;4.70;;;17.90;99.90;;;;;;7376996;19;20134;-75
2023/05/08 08:55:16;;;;;;;5.97;4.57;;;17.80;99.90;;;;;;7387331;19;20540;-74
2023/05/08 08:58:06;;;;;;;8.02;6.28;;;17.80;99.90;;;;;;7389966;19;20135;-74
2023/05/08 09:00:33;;;;;;;7.15;4.93;;;17.70;99.90;;;;;;7377683;19;20159;-74
2023/05/08 09:02:59;;;;;;;7.40;4.78;;;17.80;99.90;;;;;;7383004;19;20157;-74
2023/05/08 09:05:25;;;;;;;6.80;5.60;;;17.80;99.90;;;;;;7376005;19;20130;-74
2023/05/08 09:07:54;;;;;;;6.97;4.93;;;17.90;99.90;;;;;;7385328;19;20536;-74
2023/05/08 09:10:22;;;;;;;6.20;4.90;;;17.80;99.90;;;;;;7384595;19;21676;-74
2023/05/08 09:12:48;;;;;;;5.47;4.93;;;17.90;99.90;;;;;;7380338;19;20146;-74
2023/05/08 09:15:14;;;;;;;5.40;4.35;;;17.80;99.90;;;;;;7386435;19;20129;-74
2023/05/08 09:17:40;;;;;;;7.47;4.72;;;17.80;99.90;;;;;;7389986;19;20194;-74
2023/05/08 09:20:07;;;;;;;6.32;5.30;;;17.70;99.90;;;;;;7369015;19;20664;-74
2023/05/08 09:22:35;;;;;;;10.38;5.25;;;17.80;99.90;;;;;;7377611;19;20158;-75
2023/05/08 09:25:02;;;;;;;6.25;5.65;;;17.80;99.90;;;;;;7371272;19;20155;-74
2023/05/08 09:27:30;;;;;;;7.63;5.45;;;17.70;99.90;;;;;;7383415;19;20138;-74
2023/05/08 09:30:11;;;;;;;9.27;5.57;;;17.80;99.90;;;;;;7382547;19;20201;-74
2023/05/08 09:32:38;;;;;;;7.28;6.00;;;17.80;99.90;;;;;;7375358;19;20165;-73
2023/05/08 09:35:06;;;;;;;9.52;6.25;;;17.80;99.90;;;;;;7369817;19;20718;-74
2023/05/08 09:37:32;;;;;;;7.00;5.90;;;17.80;99.90;;;;;;7372786;19;20142;-75
2023/05/08 09:40:18;;;;;;;9.98;6.60;;;17.80;99.90;;;;;;7369483;19;20250;-74
2023/05/08 09:42:45;;;;;;;9.40;7.10;;;17.80;99.90;;;;;;7366001;19;20135;-74
2023/05/08 09:45:24;;;;;;;7.47;6.63;;;17.80;99.90;;;;;;7368244;19;20218;-74
2023/05/08 09:47:50;;;;;;;8.45;6.93;;;17.90;99.90;;;;;;7370839;19;20135;-74
2023/05/08 09:50:16;;;;;;;8.27;6.65;;;17.90;99.90;;;;;;7385840;19;20123;-74
2023/05/08 09:52:46;;;;;;;8.70;6.65;;;18.00;99.90;;;;;;7377024;19;20214;-74
2023/05/08 09:55:12;;;;;;;9.77;6.43;;;18.00;99.90;;;;;;7389114;19;20829;-73
2023/05/08 09:57:50;;;;;;;7.28;6.20;;;18.10;99.90;;;;;;7381382;19;20130;-73
2023/05/08 10:00:16;;;;;;;8.27;6.05;;;18.20;99.90;;;;;;7380664;19;20157;-72
2023/05/08 10:02:54;;;;;;;9.32;5.95;;;18.30;99.90;;;;;;7368854;19;20130;-74
2023/05/08 10:05:30;;;;;;;7.50;5.93;;;18.40;99.90;;;;;;7370856;19;20130;-72
2023/05/08 10:07:58;;;;;;;7.18;5.60;;;18.40;99.90;;;;;;7385666;19;20593;-73
2023/05/08 10:10:29;;;;;;;8.35;6.50;;;18.60;99.90;;;;;;7388472;19;20446;-74
2023/05/08 10:12:57;;;;;;;7.13;5.70;;;18.50;99.90;;;;;;7381135;19;20671;-73
2023/05/08 10:15:24;;;;;;;7.65;5.20;;;18.50;99.90;;;;;;7379840;19;20202;-75
2023/05/08 10:18:07;;;;;;;6.93;5.20;;;18.50;99.90;;;;;;7386593;19;20150;-74
2023/05/08 10:20:37;;;;;;;8.30;5.97;;;18.60;99.90;;;;;;7386270;19;20155;-74
2023/05/08 10:23:10;;;;;;;8.70;6.35;;;18.70;99.90;;;;;;7370928;19;20149;-73
2023/05/08 10:25:43;;;;;;;7.78;5.85;;;18.70;99.90;;;;;;7386925;19;20151;-73
2023/05/08 10:28:16;;;;;;;9.18;5.50;;;18.70;99.90;;;;;;7368033;19;20141;-74
2023/05/08 10:30:46;;;;;;;6.22;5.15;;;18.70;99.90;;;;;;7379491;19;20130;-74
2023/05/08 10:33:14;;;;;;;5.95;5.03;;;18.70;99.90;;;;;;7384179;19;20142;-75
2023/05/08 10:35:41;;;;;;;10.50;5.78;;;18.60;99.90;;;;;;7374523;19;20226;-74
2023/05/08 10:38:08;;;;;;;8.07;6.00;;;18.60;99.90;;;;;;7365980;19;20679;-72
2023/05/08 10:40:35;;;;;;;4.95;4.40;;;18.50;99.90;;;;;;7385307;19;20135;-74
2023/05/08 10:43:02;;;;;;;6.80;4.57;;;18.50;99.90;;;;;;7383003;19;20173;-74
2023/05/08 10:45:29;;;;;;;6.57;5.03;;;18.60;99.90;;;;;;7370562;19;20433;-74
2023/05/08 10:48:20;;;;;;;6.57;4.85;;;18.70;99.90;;;;;;7377267;19;20167;-75
2023/05/08 10:51:09;;;;;;;5.60;5.00;;;18.70;99.90;;;;;;7376334;19;20234;-75
2023/05/08 10:54:00;;;;;;;6.45;4.82;;;18.30;99.90;;;;;;7383518;19;20231;-73
2023/05/08 10:56:27;;;;;;;6.15;5.00;;;18.30;99.90;;;;;;7366869;19;20131;-73
2023/05/08 10:58:57;;;;;;;8.23;6.25;;;18.50;99.90;;;;;;7368104;19;20138;-74
2023/05/08 11:01:23;;;;;;;5.88;5.18;;;18.60;99.90;;;;;;7362907;19;20157;-73
2023/05/08 11:03:49;;;;;;;5.00;4.50;;;18.70;99.90;;;;;;7379285;19;20163;-73
2023/05/08 11:06:15;;;;;;;6.60;5.22;;;18.60;99.90;;;;;;7385748;19;20139;-74
2023/05/08 11:08:48;;;;;;;5.97;5.03;;;18.70;99.90;;;;;;7379836;19;20191;-73
2023/05/08 11:11:32;;;;;;;6.15;5.10;;;18.60;99.90;;;;;;7377427;19;20134;-73
2023/05/08 11:14:07;;;;;;;9.15;6.18;;;18.60;99.90;;;;;;7384543;19;20154;-73
2023/05/08 11:17:01;;;;;;;7.65;5.85;;;18.80;99.90;;;;;;7383149;19;20238;-74
2023/05/08 11:19:28;;;;;;;8.02;6.05;;;18.80;99.90;;;;;;7380427;19;20143;-74
2023/05/08 11:22:20;;;;;;;6.43;5.55;;;18.90;99.90;;;;;;7384725;19;20131;-72
2023/05/08 11:25:00;;;;;;;6.93;5.88;;;19.00;99.90;;;;;;7382648;19;20138;-74
2023/05/08 11:27:39;;;;;;;6.45;4.80;;;19.10;99.90;;;;;;7373226;19;20146;-74
2023/05/08 11:30:22;;;;;;;6.53;4.85;;;19.20;99.90;;;;;;7381375;19;20142;-72
2023/05/08 11:33:09;;;;;;;5.93;4.90;;;19.40;99.90;;;;;;7381953;19;20142;-73
2023/05/08 11:35:42;;;;;;;5.90;4.05;;;19.50;99.90;;;;;;7371310;19;20134;-73
2023/05/08 11:38:34;;;;;;;4.18;3.78;;;19.50;99.90;;;;;;7380110;19;20137;-69
2023/05/08 11:41:07;;;;;;;4.20;3.67;;;19.60;99.90;;;;;;7377527;19;20183;-74
2023/05/08 11:43:32;;;;;;;6.82;4.60;;;19.70;99.90;;;;;;7368144;19;20131;-73
2023/05/08 11:46:03;;;;;;;5.35;4.38;;;19.90;99.90;;;;;;7375222;19;20534;-72
2023/05/08 11:48:32;;;;;;;5.55;4.60;;;19.90;99.90;;;;;;7385088;19;20139;-74
2023/05/08 11:51:02;;;;;;;5.82;5.28;;;19.90;99.90;;;;;;7381417;19;20146;-72
2023/05/08 11:53:31;;;;;;;7.03;6.03;;;19.90;99.90;;;;;;7393084;19;20127;-73
2023/05/08 11:55:58;;;;;;;6.07;5.30;;;19.50;99.90;;;;;;7383351;19;20139;-73
2023/05/08 11:58:25;;;;;;;5.90;5.30;;;19.70;99.90;;;;;;7385296;19;20234;-73
2023/05/08 12:00:50;;;;;;;7.28;5.15;;;19.60;99.90;;;;;;7395398;19;20127;-74
2023/05/08 12:03:18;;;;;;;6.47;5.78;;;19.70;99.90;;;;;;7376484;19;20149;-74
2023/05/08 12:05:45;;;;;;;8.25;5.90;;;19.70;99.90;;;;;;7388347;19;20134;-73
2023/05/08 12:08:12;;;;;;;7.75;6.20;;;19.80;99.90;;;;;;7393944;19;20173;-74
2023/05/08 12:10:55;;;;;;;7.60;5.90;;;20.00;99.90;;;;;;7377229;19;20139;-73
2023/05/08 12:13:23;;;;;;;6.03;5.15;;;20.00;99.90;;;;;;7373835;19;20126;-74
2023/05/08 12:15:52;;;;;;;6.25;5.30;;;19.90;99.90;;;;;;7384887;19;20137;-74
2023/05/08 12:18:19;;;;;;;7.40;6.20;;;19.90;99.90;;;;;;7385313;19;20147;-75
2023/05/08 12:20:50;;;;;;;6.22;5.60;;;20.10;99.90;;;;;;7381538;19;20147;-73
2023/05/08 12:23:16;;;;;;;8.73;7.07;;;20.20;99.90;;;;;;7376292;19;20137;-74
2023/05/08 12:25:42;;;;;;;7.50;6.50;;;20.40;99.90;;;;;;7382148;19;21757;-73
2023/05/08 12:28:10;;;;;;;8.27;5.88;;;20.30;99.90;;;;;;7369755;19;20126;-73
2023/05/08 12:30:36;;;;;;;6.93;5.97;;;20.40;99.90;;;;;;7369124;19;20130;-72
2023/05/08 12:33:03;;;;;;;8.50;7.45;;;20.20;99.90;;;;;;7369310;19;20142;-72
2023/05/08 12:35:30;;;;;;;6.38;5.25;;;20.20;99.90;;;;;;7390281;19;20147;-72
2023/05/08 12:38:04;;;;;;;6.00;5.40;;;20.00;99.90;;;;;;7389218;19;20158;-73
2023/05/08 12:40:32;;;;;;;6.32;5.43;;;20.00;99.90;;;;;;7380758;19;20141;-72
2023/05/08 12:43:02;;;;;;;6.20;5.45;;;20.20;99.90;;;;;;7383081;19;20583;-74
2023/05/08 12:45:32;;;;;;;7.03;5.85;;;20.30;99.90;;;;;;7387710;19;20131;-74
2023/05/08 12:48:02;;;;;;;5.53;4.93;;;20.10;99.90;;;;;;7376624;19;20127;-72
2023/05/08 12:50:32;;;;;;;5.45;4.93;;;20.10;99.90;;;;;;7384128;19;20135;-72
2023/05/08 12:53:03;;;;;;;6.15;5.00;;;20.00;99.90;;;;;;7387308;19;20150;-71
2023/05/08 12:55:30;;;;;;;9.68;6.63;;;20.30;99.90;;;;;;7377174;19;20134;-71
2023/05/08 12:57:59;;;;;;;6.85;6.00;;;20.50;99.90;;;;;;7389257;19;20137;-72